createdAt,value
2023-02-24T00:01:25.023Z,1.85
2023-02-24T00:03:52.882Z,1.88
2023-02-24T00:06:20.392Z,1.88
2023-02-24T00:08:47.903Z,1.90
2023-02-24T00:11:15.446Z,1.92
2023-02-24T00:13:46.579Z,1.95
2023-02-24T00:16:14.422Z,1.91
2023-02-24T00:18:42.150Z,1.87
2023-02-24T00:21:11.010Z,1.79
2023-02-24T00:23:40.244Z,1.84
2023-02-24T00:26:07.758Z,1.87
2023-02-24T00:28:35.464Z,1.87
2023-02-24T00:31:03.135Z,1.84
2023-02-24T00:33:30.869Z,1.87
2023-02-24T00:35:58.321Z,1.92
2023-02-24T00:38:25.876Z,1.88
2023-02-24T00:40:53.359Z,1.84
2023-02-24T00:43:20.819Z,1.85
2023-02-24T00:45:51.563Z,1.84
2023-02-24T00:48:19.088Z,1.82
2023-02-24T00:50:46.551Z,1.76
2023-02-24T00:53:14.173Z,1.74
2023-02-24T00:55:41.776Z,1.72
2023-02-24T00:58:09.239Z,1.73
2023-02-24T01:00:37.199Z,1.72
2023-02-24T01:03:04.856Z,1.64
2023-02-24T01:05:32.327Z,1.58
2023-02-24T01:07:59.845Z,1.51
2023-02-24T01:10:28.648Z,1.46
2023-02-24T01:12:56.091Z,1.43
2023-02-24T01:15:23.673Z,1.43
2023-02-24T01:17:51.208Z,1.46
2023-02-24T01:20:19.094Z,1.50
2023-02-24T01:22:46.755Z,1.49
2023-02-24T01:25:14.497Z,1.50
2023-02-24T01:27:41.997Z,1.55
2023-02-24T01:30:09.487Z,1.59
2023-02-24T01:32:37.067Z,1.58
2023-02-24T01:35:04.756Z,1.55
2023-02-24T01:37:32.305Z,1.51
2023-02-24T01:40:04.644Z,1.52
2023-02-24T01:42:32.910Z,1.55
2023-02-24T01:45:00.386Z,1.62
2023-02-24T01:47:31.158Z,1.61
2023-02-24T01:49:58.606Z,1.60
2023-02-24T01:52:26.270Z,1.62
2023-02-24T01:54:55.252Z,1.58
2023-02-24T01:57:23.723Z,1.54
2023-02-24T01:59:51.789Z,1.50
2023-02-24T02:02:19.473Z,1.49
2023-02-24T02:04:47.131Z,1.52
2023-02-24T02:07:15.806Z,1.56
2023-02-24T02:09:43.296Z,1.56
2023-02-24T02:12:10.719Z,1.58
2023-02-24T02:14:38.408Z,1.62
2023-02-24T02:17:05.819Z,1.68
2023-02-24T02:19:33.283Z,1.72
2023-02-24T02:22:00.814Z,1.77
2023-02-24T02:24:28.322Z,1.79
2023-02-24T02:26:57.987Z,1.81
2023-02-24T02:29:25.521Z,1.81
2023-02-24T02:31:55.484Z,1.80
2023-02-24T02:34:23.105Z,1.78
2023-02-24T02:36:50.646Z,1.80
2023-02-24T02:39:18.169Z,1.83
2023-02-24T02:41:45.610Z,1.83
2023-02-24T02:44:13.067Z,1.83
2023-02-24T02:46:40.486Z,1.90
2023-02-24T02:49:07.916Z,1.95
2023-02-24T02:51:38.814Z,1.91
2023-02-24T02:54:07.953Z,1.87
2023-02-24T02:56:35.394Z,1.82
2023-02-24T02:59:03.344Z,1.86
2023-02-24T03:01:30.899Z,1.91
2023-02-24T03:03:59.095Z,1.93
2023-02-24T03:06:26.590Z,1.92
2023-02-24T03:08:54.022Z,1.93
2023-02-24T03:11:21.841Z,1.98
2023-02-24T03:13:49.888Z,1.98
2023-02-24T03:16:17.402Z,1.97
2023-02-24T03:18:44.980Z,1.94
2023-02-24T03:21:12.572Z,1.90
2023-02-24T03:23:40.016Z,1.86
2023-02-24T03:26:07.992Z,1.84
2023-02-24T03:28:37.364Z,1.86
2023-02-24T03:31:04.931Z,1.89
2023-02-24T03:33:32.499Z,1.90
2023-02-24T03:36:01.843Z,1.92
2023-02-24T03:38:30.573Z,1.92
2023-02-24T03:40:59.043Z,1.93
2023-02-24T03:43:26.677Z,1.96
2023-02-24T03:45:54.304Z,1.98
2023-02-24T03:48:21.898Z,1.99
2023-02-24T03:50:49.703Z,2.01
2023-02-24T03:53:17.146Z,2.02
2023-02-24T03:55:44.631Z,2.01
2023-02-24T03:58:12.807Z,2.00
2023-02-24T04:00:40.317Z,2.00
2023-02-24T04:03:08.099Z,1.97
2023-02-24T04:05:35.664Z,1.96
2023-02-24T04:08:04.094Z,1.91
2023-02-24T04:10:31.576Z,1.87
2023-02-24T04:12:59.760Z,1.89
2023-02-24T04:15:29.539Z,1.93
2023-02-24T04:17:57.658Z,1.97
2023-02-24T04:20:27.941Z,1.99
2023-02-24T04:22:57.026Z,2.02
2023-02-24T04:25:24.971Z,2.06
2023-02-24T04:27:52.754Z,2.07
2023-02-24T04:30:20.404Z,2.08
2023-02-24T04:32:47.922Z,2.08
2023-02-24T04:35:15.716Z,2.09
2023-02-24T04:37:44.702Z,2.12
2023-02-24T04:40:12.434Z,2.13
2023-02-24T04:42:49.281Z,2.15
2023-02-24T04:45:16.958Z,2.13
2023-02-24T04:47:46.120Z,2.13
2023-02-24T04:50:22.866Z,2.11
2023-02-24T04:52:50.460Z,2.05
2023-02-24T04:55:18.034Z,2.02
2023-02-24T04:57:46.108Z,2.06
2023-02-24T05:00:21.733Z,2.08
2023-02-24T05:02:49.298Z,2.07
2023-02-24T05:05:16.823Z,2.06
2023-02-24T05:07:47.794Z,2.07
2023-02-24T05:10:15.559Z,2.06
2023-02-24T05:12:43.039Z,2.06
2023-02-24T05:15:10.519Z,2.09
2023-02-24T05:17:38.063Z,2.10
2023-02-24T05:20:24.279Z,2.11
2023-02-24T05:22:51.814Z,2.15
2023-02-24T05:25:19.267Z,2.24
2023-02-24T05:27:47.449Z,2.32
2023-02-24T05:30:15.000Z,2.37
2023-02-24T05:32:42.858Z,2.38
2023-02-24T05:35:11.025Z,2.31
2023-02-24T05:37:38.829Z,2.24
2023-02-24T05:40:06.514Z,2.18
2023-02-24T05:42:35.175Z,2.10
2023-02-24T05:45:03.173Z,2.10
2023-02-24T05:47:30.601Z,2.11
2023-02-24T05:49:59.118Z,2.12
2023-02-24T05:52:26.742Z,2.13
2023-02-24T05:54:55.109Z,2.11
2023-02-24T05:57:25.777Z,2.08
2023-02-24T05:59:55.880Z,2.07
2023-02-24T06:02:27.747Z,2.11
2023-02-24T06:04:55.923Z,2.11
2023-02-24T06:07:24.965Z,2.13
2023-02-24T06:09:57.155Z,2.18
2023-02-24T06:12:24.770Z,2.52
2023-02-24T06:14:53.250Z,2.45
2023-02-24T06:17:20.791Z,2.30
2023-02-24T06:19:49.323Z,2.20
2023-02-24T06:22:16.837Z,2.18
2023-02-24T06:24:44.385Z,2.16
2023-02-24T06:27:17.602Z,2.13
2023-02-24T06:29:45.176Z,2.08
2023-02-24T06:32:12.886Z,2.04
2023-02-24T06:34:41.143Z,2.00
2023-02-24T06:37:08.738Z,2.03
2023-02-24T06:39:36.872Z,2.04
2023-02-24T06:42:05.580Z,2.04
2023-02-24T06:44:33.856Z,2.05
2023-02-24T06:47:01.363Z,2.08
2023-02-24T06:49:29.028Z,2.14
2023-02-24T06:51:57.582Z,2.19
2023-02-24T06:54:28.292Z,2.24
2023-02-24T06:56:55.751Z,2.32
2023-02-24T06:59:28.146Z,2.35
2023-02-24T07:01:55.772Z,2.37
2023-02-24T07:04:28.111Z,2.39
2023-02-24T07:06:56.289Z,2.46
2023-02-24T07:09:24.072Z,2.54
2023-02-24T07:11:56.780Z,2.61
2023-02-24T07:14:24.205Z,2.71
2023-02-24T07:16:55.093Z,2.79
2023-02-24T07:19:22.892Z,2.84
2023-02-24T07:21:52.532Z,2.91
2023-02-24T07:24:24.962Z,3.00
2023-02-24T07:26:52.564Z,3.08
2023-02-24T07:29:20.061Z,3.17
2023-02-24T07:31:48.990Z,3.25
2023-02-24T07:34:23.471Z,3.32
2023-02-24T07:36:51.510Z,3.41
2023-02-24T07:39:19.651Z,3.54
2023-02-24T07:41:49.497Z,3.66
2023-02-24T07:44:17.132Z,3.79
2023-02-24T07:46:44.688Z,3.93
2023-02-24T07:49:12.463Z,4.02
2023-02-24T07:51:40.107Z,4.04
2023-02-24T07:54:08.809Z,4.07
2023-02-24T07:56:45.894Z,4.12
2023-02-24T07:59:18.951Z,4.15
2023-02-24T08:01:49.990Z,4.20
2023-02-24T08:04:17.423Z,4.26
2023-02-24T08:06:47.926Z,4.29
2023-02-24T08:09:20.146Z,4.32
2023-02-24T08:11:52.076Z,4.37
2023-02-24T08:14:20.006Z,4.43
2023-02-24T08:16:47.522Z,4.45
2023-02-24T08:19:15.107Z,4.47
2023-02-24T08:21:47.345Z,4.52
2023-02-24T08:24:18.135Z,4.57
2023-02-24T08:26:45.857Z,4.59
2023-02-24T08:29:13.679Z,4.61
2023-02-24T08:31:43.371Z,4.64
2023-02-24T08:34:16.111Z,4.64
2023-02-24T08:36:48.524Z,4.66
2023-02-24T08:39:16.922Z,4.68
2023-02-24T08:41:51.464Z,4.65
2023-02-24T08:44:20.378Z,4.63
2023-02-24T08:46:52.476Z,4.59
2023-02-24T08:49:20.428Z,4.59
2023-02-24T08:51:48.369Z,4.63
2023-02-24T08:54:16.040Z,4.65
2023-02-24T08:56:44.180Z,4.64
2023-02-24T08:59:28.985Z,4.64
2023-02-24T09:02:16.548Z,4.65
2023-02-24T09:04:44.992Z,4.72
2023-02-24T09:07:15.404Z,4.79
2023-02-24T09:09:43.335Z,4.86
2023-02-24T09:12:22.136Z,4.95
2023-02-24T09:14:49.886Z,5.02
2023-02-24T09:17:20.789Z,5.03
2023-02-24T09:19:51.416Z,5.04
2023-02-24T09:22:31.546Z,5.01
2023-02-24T09:25:19.512Z,5.00
2023-02-24T09:27:52.250Z,5.01
2023-02-24T09:30:39.081Z,5.04
2023-02-24T09:33:06.997Z,5.08
2023-02-24T09:35:36.758Z,5.16
2023-02-24T09:38:07.657Z,5.22
2023-02-24T09:40:40.095Z,5.29
2023-02-24T09:43:11.210Z,5.34
2023-02-24T09:45:39.767Z,5.38
2023-02-24T09:48:10.451Z,5.59
2023-02-24T09:51:03.931Z,5.66
2023-02-24T09:53:49.354Z,5.72
2023-02-24T09:56:17.060Z,5.83
2023-02-24T09:58:50.761Z,5.92
2023-02-24T10:01:21.778Z,6.05
2023-02-24T10:03:51.712Z,6.20
2023-02-24T10:06:20.982Z,6.37
2023-02-24T10:08:49.875Z,6.51
2023-02-24T10:11:32.695Z,6.61
2023-02-24T10:14:03.669Z,6.64
2023-02-24T10:16:41.442Z,6.70
2023-02-24T10:19:15.356Z,6.75
2023-02-24T10:21:49.787Z,6.83
2023-02-24T10:24:19.420Z,6.89
2023-02-24T10:26:59.622Z,6.96
2023-02-24T10:29:29.618Z,7.07
2023-02-24T10:32:00.053Z,7.22
2023-02-24T10:34:31.929Z,7.35
2023-02-24T10:37:00.962Z,7.45
2023-02-24T10:39:33.311Z,7.46
2023-02-24T10:42:15.505Z,7.47
2023-02-24T10:45:01.371Z,7.54
2023-02-24T10:47:32.096Z,7.62
2023-02-24T10:49:59.900Z,7.63
2023-02-24T10:52:46.081Z,7.66
2023-02-24T10:55:29.249Z,7.69
2023-02-24T10:58:06.202Z,7.71
2023-02-24T11:00:51.981Z,7.75
2023-02-24T11:03:36.052Z,7.70
2023-02-24T11:06:03.742Z,7.65
2023-02-24T11:08:54.559Z,7.62
2023-02-24T11:11:51.430Z,7.64
2023-02-24T11:14:37.649Z,7.69
2023-02-24T11:17:17.583Z,7.73
2023-02-24T11:19:45.095Z,7.74
2023-02-24T11:22:12.555Z,7.77
2023-02-24T11:24:40.497Z,7.82
2023-02-24T11:27:10.920Z,7.86
2023-02-24T11:29:38.391Z,7.84
2023-02-24T11:32:09.083Z,7.84
2023-02-24T11:34:36.641Z,7.85
2023-02-24T11:37:04.147Z,7.86
2023-02-24T11:39:31.824Z,7.91
2023-02-24T11:41:59.367Z,7.94
2023-02-24T11:44:28.307Z,7.97
2023-02-24T11:46:57.702Z,8.00
2023-02-24T11:49:25.711Z,8.02
2023-02-24T11:51:53.149Z,7.99
2023-02-24T11:54:20.646Z,7.96
2023-02-24T11:56:48.423Z,7.94
2023-02-24T11:59:16.132Z,7.93
2023-02-24T12:01:44.465Z,7.91
2023-02-24T12:04:12.021Z,7.90
2023-02-24T12:06:39.502Z,7.87
2023-02-24T12:09:09.330Z,7.84
2023-02-24T12:11:38.503Z,7.87
2023-02-24T12:14:06.946Z,7.92
2023-02-24T12:16:34.614Z,7.95
2023-02-24T12:19:02.226Z,7.96
2023-02-24T12:21:33.865Z,7.98
2023-02-24T12:24:02.276Z,8.03
2023-02-24T12:26:29.806Z,8.07
2023-02-24T12:28:57.593Z,8.14
2023-02-24T12:31:25.624Z,8.17
2023-02-24T12:33:53.481Z,8.13
2023-02-24T12:36:21.619Z,8.08
2023-02-24T12:38:49.619Z,8.07
2023-02-24T12:41:17.189Z,8.08
2023-02-24T12:43:45.216Z,8.08
2023-02-24T12:46:13.225Z,8.06
2023-02-24T12:48:40.723Z,8.07
2023-02-24T12:51:08.270Z,8.10
2023-02-24T12:53:35.841Z,8.12
2023-02-24T12:56:03.315Z,8.08
2023-02-24T12:58:30.935Z,8.05
2023-02-24T13:00:58.679Z,8.02
2023-02-24T13:03:26.480Z,7.96
2023-02-24T13:05:54.032Z,7.90
2023-02-24T13:08:21.646Z,7.84
2023-02-24T13:10:49.194Z,7.81
2023-02-24T13:13:16.772Z,7.80
2023-02-24T13:15:44.283Z,7.80
2023-02-24T13:18:11.814Z,7.84
2023-02-24T13:20:39.356Z,7.89
2023-02-24T13:23:06.884Z,7.92
2023-02-24T13:25:34.476Z,7.95
2023-02-24T13:28:04.987Z,7.99
2023-02-24T13:30:32.557Z,8.05
2023-02-24T13:33:00.102Z,8.08
2023-02-24T13:35:27.745Z,8.09
2023-02-24T13:37:55.523Z,8.10
2023-02-24T13:40:23.245Z,8.08
2023-02-24T13:42:50.731Z,8.02
2023-02-24T13:45:18.281Z,7.93
2023-02-24T13:47:45.930Z,7.90
2023-02-24T13:50:13.683Z,7.89
2023-02-24T13:52:41.229Z,7.87
2023-02-24T13:55:08.817Z,7.82
2023-02-24T13:57:36.265Z,7.79
2023-02-24T14:00:10.290Z,7.76
2023-02-24T14:02:38.848Z,7.76
2023-02-24T14:05:06.600Z,7.76
2023-02-24T14:07:34.287Z,7.75
2023-02-24T14:10:02.208Z,7.70
2023-02-24T14:12:29.704Z,7.65
2023-02-24T14:14:57.223Z,7.61
2023-02-24T14:17:28.321Z,7.59
2023-02-24T14:19:56.397Z,7.58
2023-02-24T14:22:23.988Z,7.57
2023-02-24T14:24:51.425Z,7.57
2023-02-24T14:27:18.928Z,7.56
2023-02-24T14:29:46.561Z,7.56
2023-02-24T14:32:14.070Z,7.57
2023-02-24T14:34:41.610Z,7.60
2023-02-24T14:37:09.428Z,7.60
2023-02-24T14:39:36.957Z,7.61
2023-02-24T14:42:04.718Z,7.64
2023-02-24T14:44:32.385Z,7.62
2023-02-24T14:46:59.825Z,7.62
2023-02-24T14:49:27.678Z,7.61
2023-02-24T14:51:55.151Z,7.59
2023-02-24T14:54:22.747Z,7.56
2023-02-24T14:56:50.325Z,7.52
2023-02-24T14:59:17.977Z,7.48
2023-02-24T15:01:45.569Z,7.45
2023-02-24T15:04:13.590Z,7.39
2023-02-24T15:06:41.345Z,7.34
2023-02-24T15:09:08.996Z,7.32
2023-02-24T15:11:37.278Z,7.31
2023-02-24T15:14:06.376Z,7.28
2023-02-24T15:16:34.031Z,7.22
2023-02-24T15:19:01.876Z,7.17
2023-02-24T15:21:34.033Z,7.17
2023-02-24T15:24:02.621Z,7.15
2023-02-24T15:26:31.006Z,7.13
2023-02-24T15:28:58.899Z,7.11
2023-02-24T15:31:28.173Z,7.08
2023-02-24T15:33:55.949Z,7.05
2023-02-24T15:36:23.738Z,7.02
2023-02-24T15:38:51.477Z,6.98
2023-02-24T15:41:19.063Z,6.91
2023-02-24T15:43:47.287Z,6.82
2023-02-24T15:46:15.363Z,6.74
2023-02-24T15:48:42.955Z,6.68
2023-02-24T15:51:10.607Z,6.64
2023-02-24T15:53:38.096Z,6.62
2023-02-24T15:56:05.813Z,6.62
2023-02-24T15:58:34.726Z,6.63
2023-02-24T16:01:02.445Z,6.67
2023-02-24T16:03:30.144Z,6.70
2023-02-24T16:05:57.768Z,6.68
2023-02-24T16:08:25.219Z,6.64
2023-02-24T16:10:53.938Z,6.58
2023-02-24T16:13:21.508Z,6.51
2023-02-24T16:15:48.928Z,6.48
2023-02-24T16:18:20.961Z,6.43
2023-02-24T16:20:54.382Z,6.39
2023-02-24T16:23:22.672Z,6.35
2023-02-24T16:25:50.149Z,6.32
2023-02-24T16:28:17.733Z,6.28
2023-02-24T16:30:45.403Z,6.24
2023-02-24T16:33:13.176Z,6.22
2023-02-24T16:35:42.259Z,6.22
2023-02-24T16:38:12.269Z,6.19
2023-02-24T16:40:39.744Z,6.11
2023-02-24T16:43:07.210Z,6.08
2023-02-24T16:45:36.382Z,6.05
2023-02-24T16:48:03.875Z,6.04
2023-02-24T16:50:33.451Z,6.02
2023-02-24T16:53:01.106Z,6.00
2023-02-24T16:55:31.643Z,6.01
2023-02-24T16:57:59.093Z,6.01
2023-02-24T17:00:26.586Z,6.01
2023-02-24T17:02:54.402Z,6.01
2023-02-24T17:05:21.983Z,6.01
2023-02-24T17:07:49.627Z,5.96
2023-02-24T17:10:17.089Z,5.83
2023-02-24T17:12:44.564Z,5.73
2023-02-24T17:15:12.084Z,5.64
2023-02-24T17:17:39.549Z,5.57
2023-02-24T17:20:06.987Z,5.46
2023-02-24T17:22:36.992Z,5.34
2023-02-24T17:25:04.666Z,5.26
2023-02-24T17:27:32.183Z,5.26
2023-02-24T17:29:59.747Z,5.30
2023-02-24T17:32:27.435Z,5.34
2023-02-24T17:34:54.997Z,5.35
2023-02-24T17:37:22.527Z,5.37
2023-02-24T17:39:50.096Z,5.36
2023-02-24T17:42:17.554Z,5.36
2023-02-24T17:44:45.446Z,5.37
2023-02-24T17:47:12.916Z,5.37
2023-02-24T17:49:40.471Z,5.39
2023-02-24T17:52:08.246Z,5.38
2023-02-24T17:54:35.909Z,5.41
2023-02-24T17:57:03.478Z,5.46
2023-02-24T17:59:31.072Z,5.55
2023-02-24T18:01:59.981Z,5.60
2023-02-24T18:04:27.893Z,5.59
2023-02-24T18:06:55.389Z,5.62
2023-02-24T18:09:23.825Z,5.66
2023-02-24T18:11:51.279Z,5.70
2023-02-24T18:14:18.804Z,5.72
2023-02-24T18:16:46.295Z,5.76
2023-02-24T18:19:13.765Z,5.79
2023-02-24T18:21:41.253Z,5.83
2023-02-24T18:24:08.688Z,5.86
2023-02-24T18:26:36.166Z,5.89
2023-02-24T18:29:03.716Z,5.90
2023-02-24T18:31:32.871Z,5.90
2023-02-24T18:34:00.518Z,5.88
2023-02-24T18:36:28.096Z,5.86
2023-02-24T18:38:55.776Z,5.85
2023-02-24T18:41:26.439Z,5.84
2023-02-24T18:43:54.244Z,5.83
2023-02-24T18:46:22.267Z,5.82
2023-02-24T18:48:50.352Z,5.81
2023-02-24T18:51:18.087Z,5.83
2023-02-24T18:53:45.616Z,5.84
2023-02-24T18:56:13.370Z,5.81
2023-02-24T18:58:41.055Z,5.75
2023-02-24T19:01:08.577Z,5.71
2023-02-24T19:03:36.069Z,5.68
2023-02-24T19:06:03.767Z,5.72
2023-02-24T19:08:31.263Z,5.78
2023-02-24T19:10:58.708Z,5.74
2023-02-24T19:13:26.277Z,5.68
2023-02-24T19:15:53.753Z,5.66
2023-02-24T19:18:21.261Z,5.63
2023-02-24T19:20:49.103Z,5.59
2023-02-24T19:23:16.574Z,5.57
2023-02-24T19:25:44.144Z,5.54
2023-02-24T19:28:12.192Z,5.49
2023-02-24T19:30:39.830Z,5.44
2023-02-24T19:33:07.879Z,5.40
2023-02-24T19:35:36.120Z,5.36
2023-02-24T19:38:03.628Z,5.34
2023-02-24T19:40:31.300Z,5.31
2023-02-24T19:42:59.297Z,5.30
2023-02-24T19:45:27.176Z,5.28
2023-02-24T19:47:56.294Z,5.27
2023-02-24T19:50:24.168Z,5.25
2023-02-24T19:52:51.858Z,5.25
2023-02-24T19:55:19.740Z,5.26
2023-02-24T19:57:47.699Z,5.28
2023-02-24T20:00:16.564Z,5.29
2023-02-24T20:02:44.274Z,5.30
2023-02-24T20:05:12.291Z,5.30
2023-02-24T20:07:40.056Z,5.30
2023-02-24T20:10:07.791Z,5.26
2023-02-24T20:12:35.843Z,5.21
2023-02-24T20:15:03.476Z,5.10
2023-02-24T20:17:31.096Z,4.98
2023-02-24T20:19:59.546Z,4.85
2023-02-24T20:22:27.115Z,4.75
2023-02-24T20:24:54.667Z,4.64
2023-02-24T20:27:22.342Z,4.57
2023-02-24T20:29:53.684Z,4.54
2023-02-24T20:32:21.643Z,4.52
2023-02-24T20:34:49.732Z,4.45
2023-02-24T20:37:18.408Z,4.33
2023-02-24T20:39:46.273Z,4.17
2023-02-24T20:42:16.278Z,4.11
2023-02-24T20:44:43.935Z,4.16
2023-02-24T20:47:11.853Z,4.24
2023-02-24T20:49:39.915Z,4.31
2023-02-24T20:52:07.642Z,4.36
2023-02-24T20:54:35.372Z,4.39
2023-02-24T20:57:03.139Z,4.37
2023-02-24T20:59:31.289Z,4.35
2023-02-24T21:01:59.737Z,4.37
2023-02-24T21:04:28.661Z,4.42
2023-02-24T21:06:56.870Z,4.46
2023-02-24T21:09:25.194Z,4.48
2023-02-24T21:11:52.981Z,4.46
2023-02-24T21:14:22.078Z,4.46
2023-02-24T21:16:49.820Z,4.46
2023-02-24T21:19:18.306Z,4.46
2023-02-24T21:21:45.946Z,4.47
2023-02-24T21:24:13.418Z,4.48
2023-02-24T21:26:41.066Z,4.49
2023-02-24T21:29:08.682Z,4.50
2023-02-24T21:31:36.509Z,4.50
2023-02-24T21:34:04.485Z,4.52
2023-02-24T21:36:32.051Z,4.53
2023-02-24T21:39:00.953Z,4.51
2023-02-24T21:41:28.679Z,4.48
2023-02-24T21:43:56.280Z,4.43
2023-02-24T21:46:24.975Z,4.42
2023-02-24T21:48:52.666Z,4.41
2023-02-24T21:51:20.461Z,4.42
2023-02-24T21:53:49.716Z,4.43
2023-02-24T21:56:17.470Z,4.45
2023-02-24T21:58:44.962Z,4.43
2023-02-24T22:01:13.250Z,4.41
2023-02-24T22:03:40.896Z,4.42
2023-02-24T22:06:08.391Z,4.43
2023-02-24T22:08:37.711Z,4.42
2023-02-24T22:11:06.117Z,4.42
2023-02-24T22:13:33.566Z,4.34
2023-02-24T22:16:02.152Z,4.26
2023-02-24T22:18:29.842Z,4.18
2023-02-24T22:20:57.377Z,4.14
2023-02-24T22:23:24.839Z,4.06
2023-02-24T22:25:52.383Z,3.96
2023-02-24T22:28:19.859Z,3.91
2023-02-24T22:30:47.514Z,3.91
2023-02-24T22:33:15.087Z,3.87
2023-02-24T22:35:42.660Z,3.87
2023-02-24T22:38:10.199Z,3.86
2023-02-24T22:40:37.692Z,3.88
2023-02-24T22:43:05.195Z,3.91
2023-02-24T22:45:32.680Z,3.92
2023-02-24T22:48:00.622Z,3.91
2023-02-24T22:50:28.328Z,3.92
2023-02-24T22:52:55.816Z,3.94
2023-02-24T22:55:23.989Z,3.96
2023-02-24T22:57:51.430Z,3.99
2023-02-24T23:00:23.103Z,4.01
2023-02-24T23:02:51.069Z,4.03
2023-02-24T23:05:18.653Z,4.02
2023-02-24T23:07:48.434Z,3.99
2023-02-24T23:10:16.272Z,3.99
2023-02-24T23:12:43.821Z,3.95
2023-02-24T23:15:11.267Z,3.92
2023-02-24T23:17:38.983Z,3.90
2023-02-24T23:20:12.760Z,3.88
2023-02-24T23:22:40.372Z,3.87
2023-02-24T23:25:08.146Z,3.89
2023-02-24T23:27:35.802Z,3.90
2023-02-24T23:30:03.322Z,4.01
2023-02-24T23:32:30.972Z,4.25
2023-02-24T23:34:58.535Z,4.46
2023-02-24T23:37:26.404Z,4.64
2023-02-24T23:39:54.786Z,4.79
2023-02-24T23:42:22.290Z,4.91
2023-02-24T23:44:49.860Z,4.96
2023-02-24T23:47:17.438Z,5.02
2023-02-24T23:49:48.527Z,5.07
2023-02-24T23:52:16.257Z,5.08
2023-02-24T23:54:43.720Z,5.11
2023-02-24T23:57:11.542Z,5.16
2023-02-24T23:59:39.424Z,5.19
